Grangeville, ID (83530)

3:11 AM PDT on September 16, 2014 (GMT -0700)
Elk St. | Change Station
CLOSE
Current Station
Personal Weather Station
Location: Grangeville, ID
Elevation: 3460 ft
Nearby Weather Stations
Active Advisory: Air Quality Alert

Elev 3460 ft 45.92 °N, 116.13 °W | Updated 2 seconds ago

Mostly Cloudy
Mostly Cloudy
60.5 °F
Feels Like 60.5 °F
N
2.0
Wind Variable Wind from SW
Gusts 5.0 mph

Today
High -- | Low -- °F
--% Chance of Precip.
Yesterday
High -- | Low -- °F
Precip. -- in
6:24 AM 6:53 PM
Waning Gibbous, 47% visible
Pressure 30.00 in
Visibility 10.0 miles
Clouds Mostly Cloudy 12000 ft
Dew Point 36 °F
Humidity 40%
Rainfall 0.00 in
Snow Depth 1 in , 2 in , 1 in
UV 0 out of 12
Pollen 6.70 out of 12
Air Quality Not available.
Flu Activity Not available.
METAR KGIC 160955Z AUTO 00000KT 10SM BKN120 14/00 A3000 RMK AO1 T01421002

More Conditions Fewer Conditions

Pressure 30.00 in
Visibility 10.0 miles
Clouds Mostly Cloudy 12000 ft
Dew Point 36 °F
Humidity 40%
Rainfall 0.00 in
Snow Depth 1 in , 2 in , 1 in
UV 0 out of 12
Pollen 6.70 out of 12
Air Quality Not available.
Flu Activity Not available.
METAR KGIC 160955Z AUTO 00000KT 10SM BKN120 14/00 A3000 RMK AO1 T01421002

More Conditions Fewer Conditions

10-Day Weather Forecast

Almanac

Astronomy

Sep. 16, 2014 Rise Set
Actual Time 6:24 AM PDT 6:53 PM PDT
Civil Twilight 5:54 AM PDT 7:23 PM PDT
Nautical Twilight 5:18 AM PDT 7:58 PM PDT
Astronomical Twilight 4:41 AM PDT 8:35 PM PDT
Moon No Moon Rise 2:34 PM PDT
Length of Visible Light 13h 29m
Length of Day
12h 29m
Tomorrow will be 3m 12s shorter.
Waning Gibbous, 47% of the Moon is Illuminated
Today
Waning Gibbous
Sep 24
New
Oct 1
First Quarter
Oct 8
Full
Oct 15
Last Quarter

Today's Extremes

State Highs State Lows

Community

WunderPhotos

Upload Photos

1,753,717 photos uploaded!

WunderBlogs® & News

Nearby

Snow Depth

Station Depth Elevation
Secesh Summit 0 in 6520 ft
Elk Butte 0 in 5690 ft
Bear Basin 1 in 5350 ft
Moscow Mountain 0 in 4700 ft
Humboldt Gulch 2 in 4250 ft

Earthquake Activity

City Distance Mag. Time & Date
Challis, Idaho 126 miles 3.0 11:58 AM PDT
2014-09-14
Minimum magnitude displayed is 2.5.

Coastal Water Temperatures

Place Temperature
No Stations Reporting

Nearby Weather Stations